SUMU/MVD METAR and TAF weather

Enter ICAO airport designator
Station Type Date Time Source
SUMU METAR 2021/05/11 00:00 UTC NOAA

SUMU 110000Z 22009KT FEW040 SCT200 15/05 Q1021 NOSIG


Station Type Date Time Source
SUMU Decoded METAR 2021/05/11 00:00 UTC NOAA

Carrasco, Uruguay (SUMU) 34-50S 056-00W 32M
May 10, 2021 - 08:00 PM EDT / 2021.05.11 0000 UTC
Wind: from the SW (220 degrees) at 10 MPH (9 KT):0
Sky conditions: partly cloudy
Temperature: 59 F (15 C)
Dew Point: 41 F (5 C)
Relative Humidity: 51%
Pressure (altimeter): 30.15 in. Hg (1021 hPa)
ob: SUMU 110000Z 22009KT FEW040 SCT200 15/05 Q1021 NOSIG
cycle: 0

Station Type Date Time Source
SUMU TAF 2021/05/11 00:00 UTC NOAA

TAF SUMU 102330Z 1100/1124 22010KT 9999 SCT030 TX15/1118Z TN09/1110Z

Example: see airport list